Time;durP1;ratioP1;P1;durP2;ratioP2;P2;SDS_P1;SDS_P2;PMS_P1;PMS_P2;Temp;Humidity;BMP_temperature;BMP_pressure;BME280_temperature;BME280_humidity;BME280_pressure;Samples;Min_cycle;Max_cycle;Signal;HPM_P1;HPM_P2
2022/09/09 00:01:36;;;;;;;3.40;1.00;;;14.30;99.90;;;14.10;100.00;96913.97;4954366;28;20089;-42
2022/09/09 00:04:20;;;;;;;2.97;0.90;;;14.40;99.90;;;14.12;100.00;96908.53;4973147;28;20270;-42
2022/09/09 00:07:10;;;;;;;1.60;0.93;;;14.40;99.90;;;14.11;100.00;96907.69;4971171;28;20269;-42
2022/09/09 00:10:31;;;;;;;1.70;0.90;;;14.40;99.90;;;14.13;100.00;96903.16;4972263;28;20034;-45
2022/09/09 00:13:25;;;;;;;3.72;1.00;;;14.40;99.90;;;14.25;99.26;96896.28;4959844;28;20133;-43
2022/09/09 00:16:24;;;;;;;2.00;0.80;;;14.50;99.90;;;14.29;99.35;96892.50;4954601;28;20042;-43
2022/09/09 00:19:26;;;;;;;1.85;0.77;;;14.60;99.90;;;14.37;98.14;96899.13;4933680;28;20054;-44
2022/09/09 00:22:16;;;;;;;2.38;0.90;;;14.60;99.90;;;14.46;97.42;96899.44;4945453;28;20130;-44
2022/09/09 00:24:53;;;;;;;1.90;0.90;;;14.70;99.90;;;14.56;95.53;96894.41;4975249;28;20042;-43
2022/09/09 00:27:39;;;;;;;2.10;1.00;;;14.80;99.90;;;14.66;95.23;96898.25;4971186;28;20225;-44
2022/09/09 00:30:22;;;;;;;1.33;0.70;;;14.90;99.90;;;14.70;95.04;96890.97;4973761;28;20045;-43
2022/09/09 00:33:22;;;;;;;2.70;0.90;;;15.00;99.90;;;14.73;94.68;96896.06;4973959;28;20509;-43
2022/09/09 00:35:54;;;;;;;1.60;0.90;;;15.00;99.90;;;14.77;94.98;96891.41;4974107;28;20050;-42
2022/09/09 00:38:34;;;;;;;1.83;0.75;;;15.00;99.90;;;14.85;93.02;96892.66;4963923;28;20501;-42
2022/09/09 00:41:14;;;;;;;4.70;1.00;;;15.10;99.90;;;14.89;92.99;96886.22;4972150;28;20038;-44
2022/09/09 00:43:41;;;;;;;1.05;0.60;;;15.20;99.90;;;14.98;92.00;96891.88;4958689;28;20033;-47
2022/09/09 00:46:58;;;;;;;1.95;0.60;;;15.20;99.90;;;15.05;91.29;96890.56;4955458;28;20085;-47
2022/09/09 00:50:09;;;;;;;1.80;0.70;;;15.30;99.90;;;15.08;90.13;96891.22;4974175;28;20031;-48
2022/09/09 00:53:01;;;;;;;1.42;0.60;;;15.40;99.90;;;15.16;89.30;96898.69;4973937;28;20061;-46
2022/09/09 00:56:05;;;;;;;2.13;0.80;;;15.40;99.90;;;15.23;89.01;96888.53;4972885;28;20061;-44
2022/09/09 00:58:31;;;;;;;1.92;0.80;;;15.50;99.90;;;15.26;89.01;96896.31;4976123;28;20181;-45
2022/09/09 01:01:11;;;;;;;2.40;0.70;;;15.50;99.90;;;15.30;88.47;96895.16;4968855;28;20045;-43
2022/09/09 01:03:51;;;;;;;4.45;0.90;;;15.60;99.90;;;15.33;88.38;96899.44;4968371;28;20074;-45
2022/09/09 01:06:38;;;;;;;1.85;0.85;;;15.60;99.90;;;15.33;88.42;96896.78;4957205;28;20072;-45
2022/09/09 01:09:27;;;;;;;1.80;0.82;;;15.60;99.90;;;15.34;88.46;96894.00;4956380;28;20566;-45
2022/09/09 01:12:24;;;;;;;3.50;0.65;;;15.60;99.90;;;15.36;88.77;96896.56;4971302;28;20302;-45
2022/09/09 01:15:12;;;;;;;3.28;0.80;;;15.60;99.90;;;15.22;89.25;96876.22;4977473;28;20120;-44
2022/09/09 01:17:44;;;;;;;3.47;0.70;;;15.60;99.90;;;15.32;90.71;96887.94;4957220;28;20026;-44
2022/09/09 01:20:49;;;;;;;2.70;0.70;;;15.60;99.90;;;15.32;90.02;96890.59;4975408;28;20045;-45
2022/09/09 01:23:40;;;;;;;1.23;0.70;;;15.60;99.90;;;15.28;91.01;96895.25;4957784;28;20416;-45
2022/09/09 01:26:43;;;;;;;1.98;0.60;;;15.60;99.90;;;15.23;92.08;96894.69;4976323;28;20034;-46
2022/09/09 01:29:15;;;;;;;1.17;0.60;;;15.50;99.90;;;15.20;92.54;96912.63;4972456;28;20148;-44
2022/09/09 01:31:57;;;;;;;2.13;0.90;;;15.50;99.90;;;15.16;92.79;96916.44;4968483;28;20042;-47
2022/09/09 01:34:27;;;;;;;1.65;0.70;;;15.40;99.90;;;15.01;92.53;96895.19;4966582;28;20042;-44
2022/09/09 01:37:10;;;;;;;1.45;0.70;;;15.40;99.90;;;14.99;92.07;96899.75;4952867;28;20045;-47
2022/09/09 01:39:39;;;;;;;1.73;0.50;;;15.40;99.90;;;15.11;93.28;96910.56;4973350;28;20038;-44
2022/09/09 01:42:08;;;;;;;1.42;0.60;;;15.30;99.90;;;15.08;93.35;96907.16;4952628;28;20034;-44
2022/09/09 01:44:35;;;;;;;1.65;0.75;;;15.30;99.90;;;15.06;92.05;96911.69;4975682;28;20548;-43
2022/09/09 01:47:02;;;;;;;2.67;0.90;;;15.30;99.90;;;15.10;90.87;96906.22;4971559;28;20038;-44
2022/09/09 01:49:27;;;;;;;1.33;0.55;;;15.40;99.90;;;15.13;91.18;96906.00;4954238;28;20509;-45
2022/09/09 01:51:55;;;;;;;1.83;0.93;;;15.40;99.90;;;15.15;91.35;96906.78;4970841;28;20030;-47
2022/09/09 01:54:25;;;;;;;1.08;0.80;;;15.40;99.90;;;15.08;91.73;96904.50;4966180;28;20042;-44
2022/09/09 01:57:08;;;;;;;1.40;0.65;;;15.40;99.90;;;15.08;91.74;96909.81;4972943;28;20035;-47
2022/09/09 01:59:58;;;;;;;3.70;1.00;;;15.30;99.90;;;15.00;91.75;96898.81;4969576;28;20144;-46
2022/09/09 02:02:35;;;;;;;2.90;0.90;;;15.30;99.90;;;14.92;91.69;96901.09;4965474;28;20415;-44
2022/09/09 02:05:29;;;;;;;1.65;0.70;;;15.20;99.90;;;14.79;92.13;96886.88;4967950;28;20030;-44
2022/09/09 02:08:54;;;;;;;1.63;0.70;;;15.10;99.90;;;14.65;92.99;96888.56;4972779;28;20033;-45
2022/09/09 02:11:24;;;;;;;1.13;0.70;;;15.00;99.90;;;14.51;94.34;96901.81;4903551;29;20032;-45
2022/09/09 02:14:23;;;;;;;1.90;0.73;;;14.80;99.90;;;14.40;95.95;96898.97;4933429;28;20042;-44
2022/09/09 02:16:56;;;;;;;2.20;1.00;;;14.70;99.90;;;14.29;96.32;96903.09;4955784;28;20133;-45
2022/09/09 02:19:27;;;;;;;2.03;0.68;;;14.60;99.90;;;14.24;97.16;96914.94;4966799;28;20039;-44
2022/09/09 02:21:55;;;;;;;1.15;0.82;;;14.50;99.90;;;14.20;97.91;96905.47;4954852;28;20393;-47
2022/09/09 02:24:22;;;;;;;2.35;0.77;;;14.50;99.90;;;14.15;97.69;96908.38;4948626;28;20049;-43
2022/09/09 02:26:52;;;;;;;1.65;0.82;;;14.50;99.90;;;14.11;97.68;96905.03;4950255;28;20034;-44
2022/09/09 02:29:25;;;;;;;1.52;0.70;;;14.40;99.90;;;14.09;98.43;96900.78;4963154;28;20057;-46
2022/09/09 02:31:54;;;;;;;0.70;0.60;;;14.40;99.90;;;14.05;98.47;96917.81;4940559;28;20089;-45
2022/09/09 02:34:24;;;;;;;2.92;1.10;;;14.30;99.90;;;14.00;99.17;96927.81;4967672;28;20042;-47
2022/09/09 02:36:52;;;;;;;0.77;0.50;;;14.20;99.90;;;13.97;99.95;96926.22;4985024;23;20050;-45
2022/09/09 02:39:18;;;;;;;3.08;0.80;;;14.30;99.90;;;13.94;100.00;96908.69;4967615;28;20034;-46
2022/09/09 02:41:43;;;;;;;4.95;0.82;;;14.20;99.90;;;13.92;100.00;96907.06;4962209;28;20026;-44
2022/09/09 02:44:16;;;;;;;2.80;0.82;;;14.20;99.90;;;13.88;100.00;96911.69;4959743;28;20453;-48
2022/09/09 02:46:57;;;;;;;1.42;0.50;;;14.20;99.90;;;13.82;100.00;96900.59;4944077;28;20030;-45
2022/09/09 02:49:43;;;;;;;1.15;0.30;;;14.10;99.90;;;13.78;100.00;96905.22;4965054;28;20038;-47
2022/09/09 02:52:18;;;;;;;1.90;0.90;;;14.00;99.90;;;13.73;100.00;96904.66;4952875;28;20035;-47
2022/09/09 02:54:44;;;;;;;0.77;0.63;;;14.00;99.90;;;13.66;100.00;96900.63;4964579;28;20035;-46
2022/09/09 02:57:23;;;;;;;2.00;0.60;;;13.90;99.90;;;13.55;100.00;96899.44;4963608;28;20390;-45
2022/09/09 02:59:50;;;;;;;0.95;0.52;;;13.90;99.90;;;13.44;100.00;96893.91;4956096;28;20472;-45
2022/09/09 03:02:16;;;;;;;1.05;0.55;;;13.80;99.90;;;13.40;100.00;96892.34;4945358;28;20104;-46
2022/09/09 03:04:44;;;;;;;2.03;0.80;;;13.70;99.90;;;13.34;100.00;96882.13;4962366;28;20747;-45
2022/09/09 03:07:11;;;;;;;1.67;0.77;;;13.60;99.90;;;13.33;100.00;96880.41;4966674;28;20133;-45
2022/09/09 03:09:36;;;;;;;2.70;0.60;;;13.60;99.90;;;13.34;100.00;96880.31;4951067;28;20719;-45
2022/09/09 03:12:04;;;;;;;3.30;0.65;;;13.60;99.90;;;13.34;100.00;96879.47;4967414;28;20034;-44
2022/09/09 03:14:30;;;;;;;2.05;0.60;;;13.60;99.90;;;13.30;100.00;96876.09;4947449;28;20161;-46
2022/09/09 03:16:57;;;;;;;1.05;0.60;;;13.60;99.90;;;13.28;100.00;96882.41;4960648;28;20030;-45
2022/09/09 03:19:23;;;;;;;2.25;0.80;;;13.60;99.90;;;13.27;100.00;96880.72;4965959;28;20065;-45
2022/09/09 03:21:49;;;;;;;2.88;0.70;;;13.60;99.90;;;13.30;100.00;96875.25;4966215;28;20402;-46
2022/09/09 03:24:15;;;;;;;2.95;0.52;;;13.60;99.90;;;13.34;100.00;96890.06;4962456;28;20144;-44
2022/09/09 03:26:44;;;;;;;0.82;0.50;;;13.60;99.90;;;13.34;100.00;96885.63;4962763;28;20062;-46
2022/09/09 03:29:12;;;;;;;1.58;0.50;;;13.60;99.90;;;13.36;100.00;96894.31;4962008;28;20037;-50
2022/09/09 03:31:38;;;;;;;1.50;0.50;;;13.70;99.90;;;13.32;100.00;96876.06;4964044;28;20049;-45
2022/09/09 03:34:05;;;;;;;1.55;0.60;;;13.70;99.90;;;13.40;100.00;96880.91;4964789;28;20038;-45
2022/09/09 03:36:31;;;;;;;2.13;0.63;;;13.70;99.90;;;13.38;100.00;96881.00;4957878;28;20034;-45
2022/09/09 03:38:57;;;;;;;2.83;0.52;;;13.70;99.90;;;13.38;100.00;96883.66;4956179;28;20038;-45
2022/09/09 03:41:23;;;;;;;3.08;0.93;;;13.70;99.90;;;13.36;100.00;96893.47;4958320;28;20466;-47
2022/09/09 03:43:53;;;;;;;2.05;0.40;;;13.70;99.90;;;13.34;100.00;96888.25;4961046;28;20026;-45
2022/09/09 03:46:21;;;;;;;6.00;0.75;;;13.60;99.90;;;13.37;100.00;96892.56;4954178;28;20224;-46
2022/09/09 03:48:47;;;;;;;1.80;0.60;;;13.60;99.90;;;13.38;100.00;96886.28;4958002;28;20034;-44
2022/09/09 03:51:13;;;;;;;2.45;0.70;;;13.70;99.90;;;13.43;100.00;96886.91;4957997;28;20117;-47
2022/09/09 03:53:39;;;;;;;1.73;0.60;;;13.70;99.90;;;13.47;100.00;96888.41;4966821;28;20030;-45
2022/09/09 03:56:06;;;;;;;2.47;0.60;;;13.80;99.90;;;13.52;100.00;96885.53;4969772;28;20077;-45
2022/09/09 03:58:33;;;;;;;2.45;0.68;;;13.80;99.90;;;13.56;100.00;96885.25;4953840;28;20100;-46
2022/09/09 04:01:03;;;;;;;1.48;0.47;;;13.90;99.90;;;13.61;100.00;96884.16;4973443;28;20038;-45
2022/09/09 04:03:30;;;;;;;2.22;0.70;;;13.90;99.90;;;13.67;100.00;96889.06;4973819;28;20466;-48
2022/09/09 04:05:58;;;;;;;1.05;0.60;;;14.00;99.90;;;13.79;100.00;96885.72;4969543;28;20502;-46
2022/09/09 04:08:27;;;;;;;2.97;0.65;;;14.10;99.90;;;13.90;100.00;96885.94;4971121;28;20065;-47
2022/09/09 04:10:57;;;;;;;1.50;0.50;;;14.20;99.90;;;14.00;100.00;96875.66;4975658;28;20042;-50
2022/09/09 04:13:24;;;;;;;2.65;0.75;;;14.30;99.90;;;14.01;100.00;96868.56;4974291;28;20037;-45
2022/09/09 04:15:56;;;;;;;3.05;0.60;;;14.40;99.90;;;14.20;100.00;96881.59;4970156;28;20229;-45
2022/09/09 04:18:23;;;;;;;1.58;0.55;;;14.50;99.90;;;14.27;100.00;96881.13;4970640;28;20049;-46
2022/09/09 04:20:51;;;;;;;1.58;0.50;;;14.60;99.90;;;14.31;100.00;96887.94;4977626;28;20340;-48
2022/09/09 04:23:18;;;;;;;0.73;0.40;;;14.60;99.90;;;14.33;100.00;96891.34;4963558;28;20023;-49
2022/09/09 04:25:50;;;;;;;0.95;0.60;;;14.70;99.90;;;14.38;100.00;96895.56;4971883;28;20026;-45
2022/09/09 04:28:16;;;;;;;0.95;0.55;;;14.70;99.90;;;14.38;100.00;96904.34;4974170;28;20478;-46
2022/09/09 04:30:43;;;;;;;1.38;0.73;;;14.70;99.90;;;14.40;100.00;96894.50;4976579;28;20043;-47
2022/09/09 04:33:09;;;;;;;2.08;0.52;;;14.70;99.90;;;14.39;100.00;96898.13;4975303;28;20339;-50
2022/09/09 04:35:36;;;;;;;1.55;0.82;;;14.70;99.90;;;14.46;100.00;96898.56;4974030;28;20030;-48
2022/09/09 04:38:02;;;;;;;3.33;0.63;;;14.80;99.90;;;14.51;100.00;96896.50;4970235;28;20885;-45
2022/09/09 04:40:29;;;;;;;1.10;0.65;;;14.80;99.90;;;14.54;100.00;96901.63;4974336;28;20414;-48
2022/09/09 04:42:58;;;;;;;3.15;0.85;;;14.80;99.90;;;14.56;99.39;96905.03;4972154;28;20039;-45
2022/09/09 04:45:24;;;;;;;2.42;0.73;;;14.80;99.90;;;14.55;99.87;96900.66;4965314;28;20034;-48
2022/09/09 04:47:49;;;;;;;1.48;0.77;;;14.80;99.90;;;14.54;100.00;96903.44;4972725;28;20517;-46
2022/09/09 04:50:16;;;;;;;1.50;0.73;;;14.80;99.90;;;14.49;100.00;96907.19;4971960;28;20161;-46
2022/09/09 04:52:42;;;;;;;2.15;0.90;;;14.80;99.90;;;14.43;100.00;96912.03;4964368;28;20486;-45
2022/09/09 04:55:09;;;;;;;1.25;0.80;;;14.70;99.90;;;14.31;100.00;96909.16;4968208;28;20670;-45
2022/09/09 04:57:35;;;;;;;2.50;0.82;;;14.60;99.90;;;14.17;100.00;96898.53;4971336;28;20038;-45
2022/09/09 05:00:02;;;;;;;2.92;0.70;;;14.60;99.90;;;14.21;100.00;96905.38;4974366;28;20022;-45
2022/09/09 05:02:28;;;;;;;1.55;0.82;;;14.50;99.90;;;14.20;100.00;96916.06;4968114;28;20036;-45
2022/09/09 05:04:53;;;;;;;1.15;0.65;;;14.50;99.90;;;14.16;100.00;96909.22;4969635;28;20731;-46
2022/09/09 05:07:19;;;;;;;2.25;0.70;;;14.50;99.90;;;14.10;100.00;96919.25;4971821;28;20125;-45
2022/09/09 05:09:45;;;;;;;1.48;0.57;;;14.40;99.90;;;14.05;100.00;96923.09;4972718;28;20041;-46
2022/09/09 05:12:11;;;;;;;1.20;0.65;;;14.30;99.90;;;14.01;100.00;96919.78;4968663;28;20038;-45
2022/09/09 05:14:37;;;;;;;2.92;0.73;;;14.30;99.90;;;14.04;100.00;96918.75;4974517;28;20085;-46
2022/09/09 05:17:03;;;;;;;1.13;0.80;;;14.30;99.90;;;14.16;100.00;96925.13;4974231;28;20249;-46
2022/09/09 05:19:30;;;;;;;3.28;1.08;;;14.50;99.90;;;14.35;100.00;96924.91;4968953;28;20023;-47
2022/09/09 05:21:56;;;;;;;1.85;0.88;;;14.60;99.90;;;14.51;100.00;96918.56;4970158;28;20116;-46
2022/09/09 05:24:25;;;;;;;6.43;1.17;;;14.80;99.90;;;14.63;100.00;96924.97;4971726;28;20501;-46
2022/09/09 05:26:51;;;;;;;1.65;0.80;;;14.90;99.90;;;14.79;100.00;96921.41;4964998;28;20042;-46
2022/09/09 05:29:19;;;;;;;2.15;0.75;;;15.00;99.90;;;14.86;98.76;96928.88;4968733;28;20030;-46
2022/09/09 05:31:45;;;;;;;2.60;0.90;;;15.10;99.90;;;14.92;96.90;96926.78;4966747;28;20062;-45
2022/09/09 05:34:11;;;;;;;1.83;0.70;;;15.20;99.90;;;15.01;97.34;96926.22;4963877;28;20149;-46
2022/09/09 05:36:37;;;;;;;6.93;0.90;;;15.30;99.90;;;15.08;96.75;96931.03;4966011;28;20411;-47
2022/09/09 05:39:03;;;;;;;2.00;0.93;;;15.30;99.90;;;15.12;96.33;96929.06;4973330;28;20041;-47
2022/09/09 05:41:30;;;;;;;3.10;0.65;;;15.40;99.90;;;15.17;96.29;96926.97;4972863;28;20073;-46
2022/09/09 05:43:56;;;;;;;1.48;0.60;;;15.50;99.90;;;15.26;95.75;96936.16;4975387;28;20026;-45
2022/09/09 05:46:24;;;;;;;1.75;0.70;;;15.50;99.90;;;15.29;95.42;96941.28;4968649;28;20042;-45
2022/09/09 05:48:51;;;;;;;4.07;0.80;;;15.50;99.90;;;15.28;95.20;96932.44;4972818;28;20200;-45
2022/09/09 05:51:21;;;;;;;3.13;0.80;;;15.50;99.90;;;15.28;94.90;96943.06;4976016;28;20034;-47
2022/09/09 05:53:48;;;;;;;3.55;0.82;;;15.50;99.90;;;15.30;94.65;96935.00;4971475;28;20502;-45
2022/09/09 05:56:14;;;;;;;4.57;0.93;;;15.60;99.90;;;15.33;93.85;96936.63;4969973;28;20045;-45
2022/09/09 05:58:43;;;;;;;2.38;0.77;;;15.60;99.90;;;15.39;93.81;96941.53;4957303;28;20038;-49
2022/09/09 06:01:11;;;;;;;3.45;0.82;;;15.70;99.90;;;15.45;92.86;96936.69;4975200;28;20061;-45
2022/09/09 06:03:40;;;;;;;2.00;0.80;;;15.80;99.90;;;15.54;92.08;96945.88;4967528;28;20057;-45
2022/09/09 06:06:11;;;;;;;1.33;0.73;;;15.80;99.90;;;15.62;91.70;96934.75;4978308;28;20034;-45
2022/09/09 06:08:40;;;;;;;1.50;0.70;;;15.90;99.90;;;15.70;91.34;96940.41;4974236;28;20494;-48
2022/09/09 06:11:13;;;;;;;1.35;0.70;;;16.00;99.90;;;15.85;90.60;96943.94;4961538;28;20069;-48
2022/09/09 06:13:40;;;;;;;1.35;0.70;;;16.10;99.90;;;15.94;91.04;96937.16;4974661;28;20061;-44
2022/09/09 06:16:11;;;;;;;1.95;0.60;;;16.20;99.90;;;16.03;90.52;96942.72;4970269;28;20042;-45
2022/09/09 06:18:38;;;;;;;3.40;0.90;;;16.30;99.90;;;16.11;90.61;96938.69;4971431;28;20732;-48
2022/09/09 06:21:08;;;;;;;1.55;0.95;;;16.30;99.90;;;16.19;90.23;96942.53;4976219;28;20297;-48
2022/09/09 06:23:37;;;;;;;1.95;0.90;;;16.40;99.90;;;16.27;90.12;96954.47;4954071;28;20077;-45
2022/09/09 06:26:05;;;;;;;1.67;0.77;;;16.50;99.90;;;16.35;89.51;96950.34;4975801;28;20074;-45
2022/09/09 06:28:33;;;;;;;3.85;0.90;;;16.60;99.90;;;16.40;88.32;96955.34;4975665;28;20030;-46
2022/09/09 06:31:04;;;;;;;3.25;0.90;;;16.70;99.90;;;16.47;88.39;96955.78;4953992;28;20034;-46
2022/09/09 06:33:42;;;;;;;2.83;0.90;;;16.70;99.90;;;16.51;88.12;96951.97;4960209;28;20038;-47
2022/09/09 06:36:17;;;;;;;2.33;0.98;;;16.80;99.90;;;16.52;87.21;96954.53;4979352;28;20026;-45
2022/09/09 06:38:44;;;;;;;2.35;0.90;;;16.80;99.90;;;16.54;86.95;96957.06;4960973;28;20022;-46
2022/09/09 06:41:14;;;;;;;2.33;0.90;;;16.80;99.90;;;16.56;87.21;96952.50;4976207;28;20037;-49
2022/09/09 06:43:39;;;;;;;3.08;1.00;;;16.80;99.90;;;16.59;86.67;96952.31;4974658;28;20030;-45
2022/09/09 06:46:12;;;;;;;2.13;0.70;;;16.80;99.90;;;16.66;87.37;96955.41;4971640;28;20496;-46
2022/09/09 06:48:42;;;;;;;2.83;1.00;;;16.90;99.90;;;16.68;87.68;96956.16;4976452;28;20505;-46
2022/09/09 06:51:20;;;;;;;1.70;0.80;;;16.90;99.90;;;16.71;86.73;96958.59;4977585;28;20038;-45
2022/09/09 06:53:49;;;;;;;2.00;1.00;;;17.00;99.90;;;16.77;86.61;96964.34;4959033;28;20366;-46
2022/09/09 06:56:37;;;;;;;1.15;0.70;;;17.00;99.90;;;16.79;86.40;96956.25;4977894;28;20037;-45
2022/09/09 06:59:05;;;;;;;3.03;0.93;;;17.10;99.90;;;16.71;85.78;96954.13;4976457;28;20141;-45
2022/09/09 07:01:34;;;;;;;2.58;0.70;;;17.10;99.90;;;16.86;86.61;96964.72;4976832;28;20069;-45
2022/09/09 07:04:03;;;;;;;2.33;0.95;;;17.10;99.90;;;16.93;85.85;96958.00;4957725;28;20034;-48
2022/09/09 07:06:32;;;;;;;3.28;0.85;;;17.20;99.90;;;17.03;86.15;96960.84;4976310;28;20031;-49
2022/09/09 07:09:05;;;;;;;3.20;1.08;;;17.30;99.90;;;17.14;85.25;96966.31;4976909;28;20030;-46
2022/09/09 07:11:38;;;;;;;2.13;0.98;;;17.40;99.90;;;17.24;85.22;96956.69;4974926;28;20022;-46
2022/09/09 07:14:03;;;;;;;1.77;0.80;;;17.50;99.90;;;17.30;83.90;96960.72;4978055;28;20095;-46
2022/09/09 07:16:31;;;;;;;1.92;0.73;;;17.50;99.90;;;17.40;84.23;96959.09;4980145;28;20349;-48
2022/09/09 07:19:00;;;;;;;5.22;0.77;;;17.60;99.90;;;17.48;83.58;96964.75;4964996;28;20390;-46
2022/09/09 07:21:27;;;;;;;2.38;1.40;;;17.70;99.90;;;17.49;84.49;96963.78;4981665;28;20040;-45
2022/09/09 07:23:54;;;;;;;1.77;0.88;;;17.70;99.90;;;17.60;83.05;96959.50;4980540;28;20069;-46
2022/09/09 07:26:23;;;;;;;2.40;0.93;;;17.80;99.90;;;17.63;82.57;96967.28;4982359;28;20379;-49
2022/09/09 07:28:49;;;;;;;3.75;1.20;;;17.90;99.90;;;17.74;82.47;96959.34;4959585;28;20070;-45
2022/09/09 07:31:24;;;;;;;5.13;0.95;;;18.00;99.90;;;17.74;81.12;96954.84;4977583;28;20424;-48
2022/09/09 07:33:50;;;;;;;2.40;1.10;;;18.10;99.90;;;17.91;81.08;96961.66;4976517;28;20061;-46
2022/09/09 07:36:28;;;;;;;2.88;1.20;;;18.20;99.90;;;18.12;80.94;96969.91;4980684;28;20047;-46
2022/09/09 07:39:03;;;;;;;3.80;1.20;;;18.40;99.90;;;18.33;79.36;96952.41;4979041;28;20158;-45
2022/09/09 07:41:37;;;;;;;3.22;0.90;;;18.60;99.90;;;18.56;77.96;96959.50;4965449;28;20030;-46
2022/09/09 07:44:21;;;;;;;4.32;1.00;;;18.80;99.90;;;18.74;75.18;96962.59;4980583;28;20127;-47
2022/09/09 07:46:47;;;;;;;3.50;0.85;;;19.10;99.90;;;18.95;76.74;96957.44;4981654;28;20361;-48
2022/09/09 07:49:13;;;;;;;3.75;0.95;;;19.20;99.90;;;19.05;75.56;96963.75;4980213;28;20498;-49
2022/09/09 07:51:43;;;;;;;2.00;0.80;;;19.20;99.90;;;18.89;74.25;96966.75;4979836;28;20038;-48
2022/09/09 07:54:12;;;;;;;2.65;0.90;;;19.10;99.90;;;18.70;75.16;96971.81;4979392;28;20042;-46
2022/09/09 07:56:40;;;;;;;2.17;0.70;;;18.90;99.90;;;18.46;78.60;96972.69;4964515;28;20036;-46
2022/09/09 07:59:06;;;;;;;2.78;0.75;;;18.70;99.90;;;18.41;78.77;96966.88;4979703;28;20560;-47
2022/09/09 08:01:42;;;;;;;3.80;1.10;;;18.70;99.90;;;18.49;78.43;96956.44;4978632;28;20039;-47
2022/09/09 08:04:15;;;;;;;0.95;0.68;;;18.80;99.90;;;18.75;78.67;96974.09;4978583;28;20533;-46
2022/09/09 08:06:47;;;;;;;3.47;0.90;;;19.00;99.90;;;18.95;75.90;96967.25;4960469;28;20030;-46
2022/09/09 08:09:13;;;;;;;4.00;0.82;;;19.20;99.90;;;19.06;73.48;96967.28;4959809;28;20036;-50
2022/09/09 08:11:40;;;;;;;2.22;0.85;;;19.40;99.90;;;19.44;74.08;96980.28;4976364;28;20038;-44
2022/09/09 08:14:08;;;;;;;2.40;0.60;;;19.60;99.90;;;19.53;71.05;96978.72;4976215;28;20034;-49
2022/09/09 08:16:41;;;;;;;3.53;0.80;;;19.70;99.90;;;19.52;70.66;96976.16;4979893;28;20218;-46
2022/09/09 08:19:07;;;;;;;3.05;0.80;;;19.70;99.90;;;19.52;70.82;96965.44;4980022;28;20089;-45
2022/09/09 08:21:36;;;;;;;2.70;0.90;;;19.70;99.90;;;19.45;70.60;96978.44;4976577;28;20042;-46
2022/09/09 08:24:04;;;;;;;2.50;0.90;;;19.70;99.90;;;19.39;75.63;96981.63;4961961;28;20073;-48
2022/09/09 08:26:37;;;;;;;9.38;3.33;;;19.60;99.90;;;19.39;70.07;97000.34;4962047;28;20033;-47
2022/09/09 08:29:05;;;;;;;;;;;19.60;99.90;;;19.44;69.96;97000.84;4961602;28;20030;-46
2022/09/09 08:31:37;;;;;;;1.98;0.90;;;19.60;99.90;;;19.46;68.12;96998.88;4978728;28;19925;-48
2022/09/09 08:34:04;;;;;;;2.67;1.00;;;19.70;99.90;;;19.70;68.68;96997.91;4976952;28;20074;-47
2022/09/09 08:36:33;;;;;;;3.67;0.90;;;19.90;99.90;;;19.86;68.91;96998.38;5006255;23;20062;-45
2022/09/09 08:39:00;;;;;;;4.82;2.20;;;20.10;99.90;;;19.94;68.10;96987.09;4998863;28;20030;-45
2022/09/09 08:42:02;;;;;;;6.60;2.83;;;20.10;99.90;;;19.78;69.03;96987.47;5000746;28;20049;-44
2022/09/09 08:44:37;;;;;;;2.28;0.93;;;20.00;99.90;;;19.67;68.30;96990.09;4996666;28;20602;-44
2022/09/09 08:47:42;;;;;;;3.70;0.95;;;19.90;99.90;;;19.71;70.35;96986.25;4974819;28;20048;-46
2022/09/09 08:50:29;;;;;;;3.92;0.90;;;19.90;99.90;;;19.79;71.73;96989.16;4978437;28;20038;-44
2022/09/09 08:53:20;;;;;;;4.07;1.30;;;19.90;99.90;;;19.98;68.69;96996.56;4973035;28;20025;-43
2022/09/09 08:55:58;;;;;;;4.25;1.15;;;20.10;99.90;;;20.08;67.80;96988.59;4960895;28;20087;-43
2022/09/09 08:58:34;;;;;;;3.10;1.20;;;20.20;99.90;;;20.10;68.52;96984.84;4960143;28;20034;-45
2022/09/09 09:01:09;;;;;;;2.65;0.77;;;20.30;99.90;;;20.07;62.89;96986.94;4959894;28;20501;-43
2022/09/09 09:04:00;;;;;;;3.50;0.98;;;20.30;99.90;;;20.11;65.29;96988.38;4977765;28;20034;-42
2022/09/09 09:06:30;;;;;;;2.88;0.90;;;20.30;99.90;;;20.11;60.49;96999.06;4982239;28;20030;-40
2022/09/09 09:09:37;;;;;;;3.22;0.90;;;20.30;99.90;;;20.05;63.08;96999.59;4979450;28;20394;-42
2022/09/09 09:12:19;;;;;;;6.20;1.63;;;20.30;99.90;;;20.13;61.09;96997.13;4946513;28;21166;-43
2022/09/09 09:14:47;;;;;;;4.10;1.08;;;20.40;99.90;;;20.20;61.04;96996.47;4964152;28;20033;-44
2022/09/09 09:17:19;;;;;;;5.20;0.90;;;20.50;99.90;;;20.21;60.91;97000.88;4979820;28;20069;-43
2022/09/09 09:19:46;;;;;;;24.80;8.77;;;20.50;99.90;;;20.29;60.59;96999.38;4963254;28;20057;-44
2022/09/09 09:22:31;;;;;;;15.02;4.70;;;20.50;99.90;;;20.31;66.51;96992.06;4963565;28;20128;-43
2022/09/09 09:25:22;;;;;;;6.15;1.65;;;20.50;99.90;;;20.08;70.07;96997.50;4949512;28;20434;-43
2022/09/09 09:28:05;;;;;;;5.53;1.63;;;20.30;99.90;;;19.83;70.61;97009.38;4979705;28;20038;-43
2022/09/09 09:30:45;;;;;;;3.63;1.33;;;20.10;99.90;;;19.62;70.49;97004.72;4978120;28;20026;-44
2022/09/09 09:33:52;;;;;;;3.08;1.10;;;19.90;99.90;;;19.39;71.94;97009.22;4979031;28;20018;-43
2022/09/09 09:36:19;;;;;;;4.18;1.20;;;19.60;99.90;;;19.15;70.13;97008.44;4973628;28;20113;-45
2022/09/09 09:39:03;;;;;;;4.07;1.60;;;19.40;99.90;;;18.83;70.19;97015.34;4977061;28;20039;-43
2022/09/09 09:41:43;;;;;;;4.65;1.20;;;19.10;99.90;;;18.56;70.32;97014.75;4963688;28;20255;-43
2022/09/09 09:44:27;;;;;;;3.53;1.38;;;18.80;99.90;;;18.33;71.33;97000.44;4978972;28;20030;-43
2022/09/09 09:47:15;;;;;;;2.97;0.90;;;18.60;99.90;;;18.23;69.51;96990.47;4969074;28;20034;-42
2022/09/09 09:49:56;;;;;;;1.77;0.90;;;18.40;99.90;;;18.29;67.28;96991.81;4955541;28;20045;-43
2022/09/09 09:52:32;;;;;;;2.67;0.63;;;18.50;99.90;;;18.38;65.69;96985.78;4977268;28;20030;-42
2022/09/09 09:55:02;;;;;;;1.63;0.50;;;18.50;99.90;;;18.48;66.26;96978.78;4953447;28;20066;-46
2022/09/09 09:57:31;;;;;;;1.80;0.88;;;18.70;99.90;;;18.51;64.00;96951.84;4972105;28;20386;-43
2022/09/09 10:00:20;;;;;;;3.90;0.80;;;18.80;99.90;;;18.75;63.00;96974.94;4955970;28;20378;-44
2022/09/09 10:02:47;;;;;;;2.47;0.63;;;18.90;99.90;;;18.84;63.00;96960.94;4977637;28;20030;-43
2022/09/09 10:05:25;;;;;;;3.67;0.93;;;19.00;99.90;;;19.00;63.93;96959.72;4976106;28;20045;-46
2022/09/09 10:08:04;;;;;;;1.85;0.77;;;19.20;99.90;;;19.10;65.06;96966.06;4976267;28;20354;-44
2022/09/09 10:10:56;;;;;;;1.67;0.70;;;19.30;99.90;;;19.27;64.58;96962.94;4974162;28;20121;-46
2022/09/09 10:14:05;;;;;;;2.67;2.10;;;19.50;99.90;;;19.39;64.88;96955.75;4974547;28;20030;-45
2022/09/09 10:17:32;;;;;;;6.80;1.48;;;19.60;99.90;;;19.56;63.85;96961.56;4952356;28;20038;-42
2022/09/09 10:20:31;;;;;;;1.80;0.90;;;19.70;99.90;;;19.65;59.48;96948.31;4932208;28;20126;-43
2022/09/09 10:23:48;;;;;;;4.63;0.80;;;19.80;99.90;;;19.73;59.75;96945.03;4950369;28;20142;-44
2022/09/09 10:26:46;;;;;;;3.95;1.27;;;19.90;99.90;;;19.86;59.54;96942.19;4931439;28;20318;-47
2022/09/09 10:29:37;;;;;;;2.28;0.88;;;20.00;99.90;;;20.10;60.35;96943.81;4971187;28;20101;-46
2022/09/09 10:32:37;;;;;;;4.20;0.70;;;20.20;99.90;;;20.35;60.46;96953.34;4975062;28;20045;-44
2022/09/09 10:35:45;;;;;;;2.60;1.20;;;20.50;99.90;;;20.73;59.19;96952.00;4971452;28;20538;-47
2022/09/09 10:38:30;;;;;;;1.75;0.90;;;20.90;99.90;;;21.06;55.74;96947.38;4954252;28;20511;-43
2022/09/09 10:40:56;;;;;;;2.17;0.90;;;21.20;99.90;;;21.27;54.94;96940.13;4966203;28;20386;-42
2022/09/09 10:43:53;;;;;;;1.30;0.75;;;21.40;99.90;;;21.39;52.53;96953.44;4977309;28;20034;-47
2022/09/09 10:46:39;;;;;;;5.13;0.90;;;21.60;98.60;;;21.49;54.59;96947.16;4977429;28;20058;-46
2022/09/09 10:49:42;;;;;;;3.67;1.05;;;21.70;99.20;;;21.84;51.57;96945.88;4975217;28;20048;-45
2022/09/09 10:52:29;;;;;;;2.00;0.70;;;22.10;98.30;;;22.41;51.45;96943.38;4955336;28;20104;-44